Time;durP1;ratioP1;P1;durP2;ratioP2;P2;SDS_P1;SDS_P2;PMS_P1;PMS_P2;Temp;Humidity;BMP_temperature;BMP_pressure;BME280_temperature;BME280_humidity;BME280_pressure;Samples;Min_cycle;Max_cycle;Signal;HPM_P1;HPM_P2
2022/09/14 00:00:44;;;;;;;47.13;31.30;;;;;;;30.03;75.18;97945.50;4996919;28;20066;-68
2022/09/14 00:03:27;;;;;;;42.88;30.73;;;;;;;30.09;75.78;97937.72;5007668;28;20049;-68
2022/09/14 00:06:16;;;;;;;42.53;30.33;;;;;;;30.02;75.19;97950.25;5007086;28;20611;-68
2022/09/14 00:09:06;;;;;;;40.03;28.80;;;;;;;30.03;76.47;97949.06;5006933;28;20129;-68
2022/09/14 00:11:48;;;;;;;45.20;29.48;;;;;;;30.11;75.92;97952.00;5006329;28;20050;-68
2022/09/14 00:14:39;;;;;;;42.60;30.02;;;;;;;30.12;75.90;97948.06;5006923;28;20046;-68
2022/09/14 00:17:34;;;;;;;44.83;29.30;;;;;;;30.15;75.97;97941.81;5006953;28;20050;-68
2022/09/14 00:20:10;;;;;;;44.25;29.48;;;;;;;30.14;75.49;97954.06;5007224;28;20050;-68
2022/09/14 00:22:59;;;;;;;48.33;32.22;;;;;;;30.12;76.04;97951.63;5007624;28;20050;-67
2022/09/14 00:25:42;;;;;;;46.85;31.73;;;;;;;30.06;76.13;97951.13;5007625;28;20049;-68
2022/09/14 00:28:35;;;;;;;42.08;29.98;;;;;;;30.03;76.18;97954.59;5006954;28;20377;-69
2022/09/14 00:31:19;;;;;;;45.40;32.85;;;;;;;30.12;76.55;97962.72;5006471;28;20496;-68
2022/09/14 00:34:13;;;;;;;47.00;31.88;;;;;;;30.05;76.53;97966.09;4986936;28;20478;-68
2022/09/14 00:37:03;;;;;;;48.55;32.55;;;;;;;30.01;77.21;97967.19;4988557;28;20131;-68
2022/09/14 00:39:59;;;;;;;47.85;32.53;;;;;;;30.01;76.91;97967.19;5006915;28;20045;-68
2022/09/14 00:42:35;;;;;;;41.88;30.60;;;;;;;30.02;77.07;97972.38;5006913;28;20097;-68
2022/09/14 00:45:25;;;;;;;42.20;30.90;;;;;;;30.15;76.68;97966.72;5006825;28;20133;-68
2022/09/14 00:48:15;;;;;;;44.08;30.13;;;;;;;30.02;76.75;97969.63;5004602;28;20094;-68
2022/09/14 00:51:04;;;;;;;46.72;30.63;;;;;;;30.10;76.92;97973.34;4987523;28;20065;-68
2022/09/14 00:53:54;;;;;;;43.90;32.10;;;;;;;30.04;77.32;97980.31;5004322;28;20038;-69
2022/09/14 00:56:36;;;;;;;44.13;32.17;;;;;;;30.05;77.12;97981.91;5006505;28;20487;-69
2022/09/14 00:59:36;;;;;;;47.38;32.15;;;;;;;30.14;76.67;97984.50;4991470;28;20425;-68
2022/09/14 01:02:21;;;;;;;50.05;32.85;;;;;;;30.08;76.72;97997.81;5001867;28;20050;-69
2022/09/14 01:05:12;;;;;;;45.50;31.75;;;;;;;30.12;77.13;97987.63;4986767;28;20600;-68
2022/09/14 01:08:07;;;;;;;45.58;32.60;;;;;;;30.24;76.47;97995.78;4987019;28;20428;-68
2022/09/14 01:11:05;;;;;;;52.38;32.28;;;;;;;30.20;77.18;98000.44;4986757;28;20074;-69
2022/09/14 01:14:06;;;;;;;44.22;32.95;;;;;;;30.18;76.58;98002.75;4988110;28;20038;-69
2022/09/14 01:17:02;;;;;;;44.55;30.95;;;;;;;30.21;77.63;98007.59;4986383;28;20049;-68
2022/09/14 01:19:56;;;;;;;43.40;32.13;;;;;;;30.30;77.14;98009.34;4990334;28;20462;-68
2022/09/14 01:22:52;;;;;;;46.80;32.00;;;;;;;30.34;76.61;98013.00;5005072;28;20060;-68
2022/09/14 01:25:56;;;;;;;40.63;32.00;;;;;;;30.37;77.50;98015.06;5006360;28;20100;-68
2022/09/14 01:29:05;;;;;;;50.08;33.40;;;;;;;30.36;76.93;98016.22;5002815;28;20148;-68
2022/09/14 01:32:22;;;;;;;48.58;35.40;;;;;;;30.43;76.75;98008.88;4985234;28;20779;-69
2022/09/14 01:35:16;;;;;;;55.70;35.83;;;;;;;30.48;76.62;98013.34;4969346;28;20116;-68
2022/09/14 01:38:00;;;;;;;49.58;35.05;;;;;;;30.52;77.56;98033.59;4984833;28;20042;-68
2022/09/14 01:40:53;;;;;;;47.92;34.97;;;;;;;30.49;76.87;98026.00;4984790;28;20046;-68
2022/09/14 01:43:56;;;;;;;51.72;36.08;;;;;;;30.47;77.12;98033.06;4984379;28;20050;-68
2022/09/14 01:46:56;;;;;;;53.58;35.78;;;;;;;30.48;77.26;98042.97;4987334;28;20034;-68
2022/09/14 01:49:44;;;;;;;58.72;38.25;;;;;;;30.57;76.19;98043.56;5004301;28;20054;-69
2022/09/14 01:52:44;;;;;;;60.45;38.90;;;;;;;30.61;76.14;98056.34;5004763;28;20058;-69
2022/09/14 01:55:59;;;;;;;57.95;39.05;;;;;;;30.66;76.54;98059.97;4995793;28;20149;-69
2022/09/14 01:59:24;;;;;;;60.60;40.53;;;;;;;30.69;76.70;98059.22;4986442;28;20046;-68
2022/09/14 02:02:37;;;;;;;57.35;39.58;;;;;;;30.73;76.33;98057.38;4890778;29;20546;-68
2022/09/14 02:05:34;;;;;;;65.00;40.28;;;;;;;30.78;76.35;98065.34;4984740;28;20108;-69
2022/09/14 02:08:27;;;;;;;64.20;40.80;;;;;;;30.83;76.42;98065.09;4986033;28;20482;-70
2022/09/14 02:11:10;;;;;;;62.97;42.83;;;;;;;30.80;76.15;98071.34;4985072;28;20054;-70
2022/09/14 02:14:06;;;;;;;71.97;46.33;;;;;;;30.95;75.35;98072.47;4986793;28;20441;-69
2022/09/14 02:17:03;;;;;;;72.78;45.30;;;;;;;31.19;75.43;98072.16;4986096;28;20116;-68
2022/09/14 02:19:56;;;;;;;70.80;46.95;;;;;;;31.30;75.07;98071.53;4984584;28;20564;-67
2022/09/14 02:22:41;;;;;;;63.17;46.58;;;;;;;31.33;75.35;98074.38;5012049;28;20603;-69
2022/09/14 02:25:39;;;;;;;70.65;47.78;;;;;;;31.57;73.50;98075.25;5005577;28;20046;-69
2022/09/14 02:28:18;;;;;;;66.88;46.03;;;;;;;31.71;72.97;98078.25;5006448;28;20056;-68
2022/09/14 02:31:24;;;;;;;65.75;47.15;;;;;;;31.69;72.10;98083.38;5009886;28;20692;-69
2022/09/14 02:34:15;;;;;;;66.10;44.28;;;;;;;31.67;72.50;98082.16;5008724;28;20681;-69
2022/09/14 02:37:20;;;;;;;70.63;45.60;;;;;;;31.82;71.15;98078.44;5009111;28;20046;-69
2022/09/14 02:40:21;;;;;;;64.60;45.30;;;;;;;31.87;71.10;98080.88;4992854;28;20041;-69
2022/09/14 02:43:28;;;;;;;63.78;44.50;;;;;;;31.64;71.27;98092.00;5007928;28;20058;-69
2022/09/14 02:46:19;;;;;;;59.67;42.60;;;;;;;32.00;71.10;98089.81;5008170;28;20149;-69
2022/09/14 02:49:40;;;;;;;56.45;40.70;;;;;;;32.31;69.78;98094.31;5008411;28;20042;-68
2022/09/14 02:52:43;;;;;;;58.38;41.15;;;;;;;32.36;70.43;98090.41;4998200;28;20054;-69
2022/09/14 02:55:37;;;;;;;58.37;41.07;;;;;;;32.46;69.07;98098.09;4991633;28;20034;-68
2022/09/14 02:58:20;;;;;;;59.22;43.03;;;;;;;32.41;69.94;98084.53;4973001;28;20060;-68
2022/09/14 03:01:12;;;;;;;56.22;42.17;;;;;;;32.35;68.37;98091.56;4989141;28;20121;-71
2022/09/14 03:04:01;;;;;;;57.20;41.83;;;;;;;32.28;68.68;98089.50;4989378;28;20494;-69
2022/09/14 03:06:43;;;;;;;66.25;42.60;;;;;;;32.74;68.82;98086.59;4989020;28;20038;-69
2022/09/14 03:09:32;;;;;;;64.93;43.83;;;;;;;32.72;68.61;98088.16;4989315;28;20478;-68
2022/09/14 03:12:14;;;;;;;61.97;42.50;;;;;;;32.80;66.96;98098.19;4989033;28;20061;-70
2022/09/14 03:15:10;;;;;;;62.17;44.65;;;;;;;32.66;68.16;98089.69;4992479;28;20061;-69
2022/09/14 03:18:06;;;;;;;65.18;42.35;;;;;;;32.95;66.69;98099.97;4986595;28;20046;-69
2022/09/14 03:21:15;;;;;;;61.08;42.78;;;;;;;32.94;67.14;98092.00;5000842;28;20104;-69
2022/09/14 03:23:54;;;;;;;66.53;44.17;;;;;;;33.02;66.38;98095.66;5008255;28;20378;-69
2022/09/14 03:26:51;;;;;;;59.95;42.47;;;;;;;33.22;68.09;98094.34;5008382;28;20068;-69
2022/09/14 03:29:27;;;;;;;73.97;42.75;;;;;;;33.34;65.52;98102.44;5009006;28;20120;-69
2022/09/14 03:32:23;;;;;;;57.33;41.55;;;;;;;33.03;66.40;98105.63;5007226;28;20647;-70
2022/09/14 03:34:59;;;;;;;61.75;41.53;;;;;;;33.09;67.07;98102.09;4996656;28;20039;-69
2022/09/14 03:37:48;;;;;;;58.78;40.83;;;;;;;33.19;66.86;98106.25;4995172;28;20132;-70
2022/09/14 03:40:30;;;;;;;65.50;42.55;;;;;;;33.25;67.56;98115.00;5005459;28;20049;-70
2022/09/14 03:43:19;;;;;;;64.45;43.55;;;;;;;33.15;66.95;98117.31;5007440;28;20049;-70
2022/09/14 03:46:25;;;;;;;65.07;39.80;;;;;;;33.30;66.30;98114.69;5007539;28;20057;-70
2022/09/14 03:49:07;;;;;;;55.08;40.83;;;;;;;33.45;67.42;98118.44;4991270;28;20121;-70
2022/09/14 03:51:56;;;;;;;63.67;41.42;;;;;;;33.31;68.14;98119.88;4986918;28;20050;-70
2022/09/14 03:54:40;;;;;;;59.08;41.55;;;;;;;33.31;66.64;98113.53;4988120;28;20058;-70
2022/09/14 03:57:29;;;;;;;64.25;42.53;;;;;;;33.34;65.00;98113.56;4987962;28;20039;-70
2022/09/14 04:00:12;;;;;;;63.92;42.13;;;;;;;33.61;64.59;98113.44;4987744;28;20058;-71
2022/09/14 04:03:01;;;;;;;60.60;42.10;;;;;;;33.52;66.60;98116.53;5002331;28;20128;-70
2022/09/14 04:05:54;;;;;;;52.45;37.10;;;;;;;33.59;65.15;98113.00;5007413;28;20128;-70
2022/09/14 04:08:46;;;;;;;51.40;32.88;;;;;;;33.86;64.59;98121.22;5006538;28;20131;-69
2022/09/14 04:11:33;;;;;;;54.85;38.33;;;;;;;33.45;62.63;98122.00;5006859;28;20529;-69
2022/09/14 04:14:24;;;;;;;58.33;39.92;;;;;;;33.29;62.98;98121.44;5005725;28;20077;-69
2022/09/14 04:17:21;;;;;;;61.83;40.22;;;;;;;33.71;63.58;98115.53;5017089;28;20045;-70
2022/09/14 04:20:20;;;;;;;59.08;40.47;;;;;;;34.08;64.31;98128.56;5004977;28;20096;-71
2022/09/14 04:23:12;;;;;;;56.85;38.45;;;;;;;34.22;63.24;98127.13;5005667;28;20057;-68
2022/09/14 04:26:02;;;;;;;44.58;32.78;;;;;;;33.98;59.33;98128.50;5006729;28;20045;-69
2022/09/14 04:28:45;;;;;;;50.72;33.92;;;;;;;34.28;61.23;98131.13;5005834;28;20060;-70
2022/09/14 04:31:34;;;;;;;50.80;37.60;;;;;;;34.33;60.88;98128.78;5006800;28;20099;-70
2022/09/14 04:34:18;;;;;;;49.83;36.30;;;;;;;34.17;58.40;98125.50;5005900;28;20135;-71
2022/09/14 04:37:08;;;;;;;52.45;34.67;;;;;;;34.46;56.94;98126.50;5006808;28;20046;-70
2022/09/14 04:39:55;;;;;;;56.13;36.13;;;;;;;34.41;59.73;98124.06;5006555;28;20136;-70
2022/09/14 04:42:44;;;;;;;52.28;36.13;;;;;;;34.63;59.87;98124.22;4993550;28;20042;-71
2022/09/14 04:45:26;;;;;;;52.45;37.75;;;;;;;34.40;60.38;98124.47;5005700;28;20079;-68
2022/09/14 04:48:15;;;;;;;57.45;35.13;;;;;;;35.01;59.95;98127.63;5005357;28;20046;-68
2022/09/14 04:51:01;;;;;;;50.10;33.80;;;;;;;34.64;56.21;98120.22;4996515;28;20046;-70
2022/09/14 04:53:56;;;;;;;48.05;30.65;;;;;;;35.58;54.46;98122.25;4971690;28;20078;-69
2022/09/14 04:56:40;;;;;;;41.70;28.73;;;;;;;36.05;54.85;98120.31;4986365;28;20137;-68
2022/09/14 04:59:31;;;;;;;43.03;28.92;;;;;;;36.57;52.47;98124.66;5000597;28;20061;-68
2022/09/14 05:02:18;;;;;;;45.20;31.77;;;;;;;36.56;53.97;98120.28;5006239;28;20042;-69
2022/09/14 05:05:07;;;;;;;59.30;29.77;;;;;;;36.31;51.69;98117.53;5006531;28;20052;-70
2022/09/14 05:07:56;;;;;;;52.47;34.88;;;;;;;36.49;55.02;98117.50;5005598;28;20046;-69
2022/09/14 05:10:45;;;;;;;54.03;33.97;;;;;;;36.15;52.29;98115.13;4974725;28;20038;-69
2022/09/14 05:13:30;;;;;;;49.78;34.22;;;;;;;36.24;54.56;98115.53;4991077;28;20409;-70
2022/09/14 05:16:23;;;;;;;49.78;34.25;;;;;;;36.64;52.86;98117.06;5005139;28;20050;-71
2022/09/14 05:19:14;;;;;;;48.47;32.92;;;;;;;36.15;51.85;98112.31;5004970;28;20058;-71
2022/09/14 05:22:10;;;;;;;49.40;32.92;;;;;;;36.16;51.71;98113.94;4986437;28;20042;-69
2022/09/14 05:24:50;;;;;;;48.38;32.00;;;;;;;36.49;54.29;98106.31;4985762;28;20638;-69
2022/09/14 05:27:43;;;;;;;54.67;34.47;;;;;;;36.21;55.18;98107.94;4970903;28;20042;-66
2022/09/14 05:30:28;;;;;;;69.03;39.75;;;;;;;35.58;54.76;98108.28;4970538;28;20050;-72
2022/09/14 05:33:21;;;;;;;67.35;42.00;;;;;;;35.13;56.40;98107.75;4972012;28;20128;-66
2022/09/14 05:36:23;;;;;;;81.55;45.92;;;;;;;35.11;56.96;98110.13;4973380;28;20073;-68
2022/09/14 05:39:11;;;;;;;79.13;45.60;;;;;;;35.00;58.07;98115.66;4967356;28;20130;-67
2022/09/14 05:42:03;;;;;;;87.53;49.08;;;;;;;34.50;57.20;98110.59;5004793;28;20056;-69
2022/09/14 05:44:48;;;;;;;81.93;50.25;;;;;;;34.39;58.53;98108.94;4976537;28;20721;-69
2022/09/14 05:47:38;;;;;;;80.57;50.40;;;;;;;34.46;60.61;98107.00;4999295;28;20100;-68
2022/09/14 05:50:50;;;;;;;96.03;53.60;;;;;;;34.05;59.56;98109.88;4993246;28;20401;-71
2022/09/14 05:53:40;;;;;;;83.97;54.90;;;;;;;34.05;59.56;98107.09;5005434;28;20045;-71
2022/09/14 05:56:33;;;;;;;95.05;55.95;;;;;;;34.02;61.01;98107.06;5005059;28;20046;-75
2022/09/14 05:59:20;;;;;;;87.75;55.05;;;;;;;33.91;60.40;98102.19;4987367;28;20046;-69
2022/09/14 06:02:13;;;;;;;83.30;49.78;;;;;;;33.44;58.28;98109.28;5005364;28;20092;-68
2022/09/14 06:05:06;;;;;;;83.50;53.22;;;;;;;33.47;61.28;98116.06;4994138;28;20046;-70
2022/09/14 06:07:52;;;;;;;79.50;50.10;;;;;;;33.57;62.03;98103.44;5010486;28;20054;-68
2022/09/14 06:10:42;;;;;;;88.78;53.95;;;;;;;33.31;60.06;98102.41;5011329;28;20046;-70
2022/09/14 06:13:38;;;;;;;88.95;56.30;;;;;;;33.51;62.80;98103.00;5007779;28;20069;-70
2022/09/14 06:16:32;;;;;;;89.60;54.90;;;;;;;33.30;64.08;98101.56;5012873;28;20046;-73
2022/09/14 06:19:24;;;;;;;92.32;54.50;;;;;;;33.52;62.58;98099.81;5007853;28;20144;-69
2022/09/14 06:22:14;;;;;;;85.72;52.10;;;;;;;33.48;59.02;98089.84;5007510;28;20499;-70
2022/09/14 06:24:57;;;;;;;87.00;53.25;;;;;;;33.66;61.70;98088.06;5008045;28;20046;-69
2022/09/14 06:27:46;;;;;;;88.57;55.00;;;;;;;33.62;61.06;98081.63;5009239;28;20070;-67
2022/09/14 06:30:36;;;;;;;90.65;57.28;;;;;;;33.81;61.20;98080.63;5009690;28;20212;-70
2022/09/14 06:33:26;;;;;;;95.38;56.83;;;;;;;33.78;58.92;98075.03;4994875;28;20050;-72
2022/09/14 06:36:13;;;;;;;89.53;53.10;;;;;;;33.87;58.15;98070.75;4961691;28;20057;-74
2022/09/14 06:39:06;;;;;;;83.00;51.42;;;;;;;33.87;57.65;98072.72;5007383;28;20136;-70
2022/09/14 06:41:50;;;;;;;81.57;48.85;;;;;;;34.05;55.53;98073.69;5009125;28;20041;-72
2022/09/14 06:44:42;;;;;;;83.95;47.42;;;;;;;34.12;55.21;98072.91;4992081;28;20440;-75
2022/09/14 06:47:32;;;;;;;67.88;46.20;;;;;;;34.61;54.00;98065.28;4956053;28;20121;-72
2022/09/14 06:50:23;;;;;;;86.05;48.20;;;;;;;34.28;55.99;98058.72;4988892;28;20076;-72
2022/09/14 06:53:09;;;;;;;71.15;46.00;;;;;;;34.50;58.51;98060.44;4990225;28;20500;-72
2022/09/14 06:55:59;;;;;;;78.45;47.03;;;;;;;34.52;58.27;98063.63;4988147;28;20089;-71
2022/09/14 06:58:42;;;;;;;82.10;48.63;;;;;;;34.28;59.37;98059.53;4981928;28;20053;-73
2022/09/14 07:01:32;;;;;;;76.10;48.17;;;;;;;34.51;59.86;98058.47;5001675;28;20062;-72
2022/09/14 07:04:17;;;;;;;69.72;45.08;;;;;;;34.74;53.70;98051.81;4989159;28;20054;-72
2022/09/14 07:07:09;;;;;;;75.75;45.58;;;;;;;34.96;56.67;98052.72;4986351;28;20537;-72
2022/09/14 07:09:51;;;;;;;65.25;42.40;;;;;;;34.90;55.11;98050.28;4992129;28;20129;-73
2022/09/14 07:12:40;;;;;;;68.53;43.10;;;;;;;34.86;54.67;98046.69;5008712;28;20069;-71
2022/09/14 07:15:57;;;;;;;60.80;40.63;;;;;;;34.68;54.64;98043.03;4989544;28;20057;-71
2022/09/14 07:18:48;;;;;;;63.58;40.13;;;;;;;34.95;54.20;98034.38;5006964;28;20045;-72
2022/09/14 07:21:46;;;;;;;66.82;41.10;;;;;;;35.46;52.67;98042.47;4997020;28;20061;-70
2022/09/14 07:24:54;;;;;;;58.72;40.00;;;;;;;35.56;54.49;98038.13;5005389;28;20053;-73
2022/09/14 07:27:51;;;;;;;62.85;41.85;;;;;;;35.35;54.30;98029.72;4988115;28;20145;-72
2022/09/14 07:30:33;;;;;;;72.50;42.25;;;;;;;35.60;53.74;98036.13;4977759;28;20120;-72
2022/09/14 07:33:26;;;;;;;62.58;40.20;;;;;;;35.70;52.45;98014.22;5008155;28;20168;-73
2022/09/14 07:36:14;;;;;;;61.03;36.53;;;;;;;35.88;52.27;98012.19;4990874;28;20547;-73
2022/09/14 07:39:09;;;;;;;56.42;37.33;;;;;;;35.69;54.35;98005.03;5006207;28;20050;-74
2022/09/14 07:41:56;;;;;;;64.47;38.58;;;;;;;35.84;52.55;98012.22;4989348;28;20038;-74
2022/09/14 07:44:52;;;;;;;66.50;37.22;;;;;;;35.75;52.90;98009.03;5005645;28;20137;-73
2022/09/14 07:47:38;;;;;;;56.35;34.10;;;;;;;35.98;52.97;98000.25;5006933;28;20850;-73
2022/09/14 07:50:29;;;;;;;47.17;28.45;;;;;;;35.81;52.50;97989.88;4981000;28;20050;-74
2022/09/14 07:53:20;;;;;;;52.10;31.40;;;;;;;36.04;54.28;97990.25;4970905;28;20155;-75
2022/09/14 07:56:12;;;;;;;38.25;27.60;;;;;;;35.91;51.50;97983.50;4970481;28;20065;-75
2022/09/14 07:58:55;;;;;;;43.05;26.65;;;;;;;35.74;52.40;97973.16;4985732;28;20050;-76
2022/09/14 08:02:10;;;;;;;37.17;25.95;;;;;;;35.46;53.25;97981.09;4986602;28;20176;-75
2022/09/14 08:05:02;;;;;;;36.17;25.95;;;;;;;35.60;53.98;97980.31;4970895;28;20042;-76
2022/09/14 08:07:45;;;;;;;36.10;24.38;;;;;;;35.58;53.31;97974.34;4969738;28;20054;-74
2022/09/14 08:10:37;;;;;;;35.10;23.52;;;;;;;35.54;53.21;97969.94;4985036;28;20069;-75
2022/09/14 08:13:20;;;;;;;36.25;24.30;;;;;;;35.80;52.97;97963.16;4982820;28;20903;-74
2022/09/14 08:16:14;;;;;;;38.53;24.02;;;;;;;35.98;51.90;97961.16;4959125;28;20111;-73
2022/09/14 08:19:05;;;;;;;34.42;24.48;;;;;;;35.95;53.50;97953.56;4986927;28;20050;-74
2022/09/14 08:21:51;;;;;;;35.58;24.55;;;;;;;35.41;52.91;97956.41;4972101;28;20540;-75
2022/09/14 08:24:52;;;;;;;32.00;24.85;;;;;;;35.44;55.21;97949.22;4983841;28;20077;-74
2022/09/14 08:27:44;;;;;;;39.03;26.38;;;;;;;35.19;53.74;97943.63;4981851;28;20060;-76
2022/09/14 08:30:33;;;;;;;36.55;27.20;;;;;;;35.44;55.49;97944.41;5007936;28;20719;-74
2022/09/14 08:33:16;;;;;;;36.55;26.10;;;;;;;35.58;55.48;97945.59;5007197;28;20049;-73
2022/09/14 08:36:05;;;;;;;39.78;22.90;;;;;;;34.98;58.22;97934.00;5006022;28;20054;-72
2022/09/14 08:39:00;;;;;;;31.85;22.20;;;;;;;34.98;58.28;97919.28;5005855;28;20386;-73
2022/09/14 08:41:52;;;;;;;31.08;23.73;;;;;;;34.96;57.75;97921.66;5005953;28;20055;-73
2022/09/14 08:45:12;;;;;;;33.83;22.60;;;;;;;35.02;59.95;97918.09;4988581;28;20085;-73
2022/09/14 08:47:47;;;;;;;28.77;21.90;;;;;;;35.27;57.68;97917.31;4986180;28;20077;-74
2022/09/14 08:50:39;;;;;;;29.00;21.92;;;;;;;35.19;57.02;97919.31;4986021;28;20050;-72
2022/09/14 08:53:24;;;;;;;30.65;22.08;;;;;;;34.79;58.06;97910.09;4986435;28;20446;-73
2022/09/14 08:56:30;;;;;;;39.70;23.20;;;;;;;35.12;57.79;97899.75;4985222;28;20053;-74
2022/09/14 08:59:45;;;;;;;33.80;22.85;;;;;;;35.21;54.87;97893.81;4970954;28;20455;-73
2022/09/14 09:03:21;;;;;;;32.47;22.27;;;;;;;34.89;57.84;97891.78;4967326;28;20046;-73
2022/09/14 09:06:45;;;;;;;38.92;24.40;;;;;;;34.85;58.10;97886.22;4960773;28;20152;-74
2022/09/14 09:09:58;;;;;;;38.22;22.20;;;;;;;34.86;57.16;97885.00;4968805;28;20054;-72
2022/09/14 09:12:44;;;;;;;34.65;22.30;;;;;;;34.93;56.65;97875.06;4970200;28;20538;-73
2022/09/14 09:15:54;;;;;;;32.42;22.55;;;;;;;35.10;57.71;97865.91;4985501;28;20062;-74
2022/09/14 09:18:56;;;;;;;32.28;21.98;;;;;;;35.21;56.34;97858.34;4970560;28;20054;-73
2022/09/14 09:21:48;;;;;;;32.75;22.50;;;;;;;34.65;56.43;97857.88;5004715;28;20060;-74
2022/09/14 09:24:46;;;;;;;31.08;22.52;;;;;;;35.04;55.81;97843.19;5002161;28;20066;-72
2022/09/14 09:27:40;;;;;;;35.22;24.00;;;;;;;34.74;55.77;97840.00;4970869;28;20061;-74
2022/09/14 09:30:23;;;;;;;31.88;23.90;;;;;;;34.97;56.93;97843.22;4984801;28;20055;-73
2022/09/14 09:33:24;;;;;;;37.97;23.75;;;;;;;34.95;56.90;97830.84;4981534;28;20577;-74
2022/09/14 09:36:20;;;;;;;30.77;22.15;;;;;;;35.05;57.96;97830.06;4965293;28;20058;-74
2022/09/14 09:39:11;;;;;;;29.60;23.30;;;;;;;35.17;57.05;97824.09;4967170;28;20054;-74
2022/09/14 09:42:12;;;;;;;33.40;24.60;;;;;;;35.34;56.88;97830.06;4986012;28;20056;-75
2022/09/14 09:45:04;;;;;;;35.25;24.05;;;;;;;35.14;57.49;97822.09;4970321;28;20108;-75
2022/09/14 09:47:48;;;;;;;42.92;25.60;;;;;;;34.56;56.10;97823.25;4986073;28;20347;-74
2022/09/14 09:50:49;;;;;;;44.08;25.80;;;;;;;34.75;57.39;97808.94;4987062;28;20132;-74
2022/09/14 09:53:31;;;;;;;44.47;24.23;;;;;;;34.63;56.71;97801.75;4986536;28;20050;-73
2022/09/14 09:56:34;;;;;;;41.58;23.98;;;;;;;35.07;58.32;97788.63;4984586;28;20057;-74
2022/09/14 09:59:34;;;;;;;32.35;23.77;;;;;;;35.00;56.33;97791.41;4984508;28;20042;-73
2022/09/14 10:02:31;;;;;;;34.13;24.15;;;;;;;34.99;60.28;97790.63;4985705;28;20053;-72
2022/09/14 10:05:20;;;;;;;35.28;23.20;;;;;;;34.83;59.19;97782.66;4953995;28;20051;-75
2022/09/14 10:08:13;;;;;;;31.40;24.10;;;;;;;34.59;59.95;97775.88;4950206;28;20039;-74
2022/09/14 10:11:03;;;;;;;36.88;25.65;;;;;;;34.58;59.26;97784.63;4639310;28;10000663;-73
2022/09/14 10:13:46;;;;;;;34.70;23.80;;;;;;;34.54;58.01;97783.84;4986691;28;20165;-70
2022/09/14 10:16:47;;;;;;;34.65;23.60;;;;;;;34.50;56.74;97781.03;4985947;28;20049;-72
2022/09/14 10:19:31;;;;;;;36.03;24.85;;;;;;;34.42;58.59;97783.03;4986143;28;20132;-73
2022/09/14 10:22:40;;;;;;;41.17;24.85;;;;;;;34.25;58.16;97779.03;4968026;28;20533;-73
2022/09/14 10:25:32;;;;;;;33.28;23.88;;;;;;;34.10;56.56;97780.94;4989070;28;20057;-72
2022/09/14 10:28:37;;;;;;;34.17;23.50;;;;;;;34.30;60.00;97781.44;5004401;28;20046;-75
2022/09/14 10:31:30;;;;;;;31.25;23.27;;;;;;;34.45;55.97;97787.81;4990037;28;20108;-73
2022/09/14 10:34:24;;;;;;;32.00;23.85;;;;;;;34.25;57.66;97781.81;5004522;28;20089;-71
2022/09/14 10:37:34;;;;;;;32.15;23.63;;;;;;;34.22;57.20;97781.78;4987602;28;20100;-70
2022/09/14 10:40:15;;;;;;;;;;;;;;;34.10;59.01;97780.94;5001329;28;20056;-70
2022/09/14 10:43:37;;;;;;;29.95;23.60;;;;;;;33.97;59.66;97776.13;5004825;28;19922;-73
2022/09/14 10:47:10;;;;;;;37.15;24.13;;;;;;;33.73;61.19;97784.81;4996273;28;20065;-71
2022/09/14 10:50:35;;;;;;;33.80;24.45;;;;;;;33.46;62.64;97787.03;4911601;29;20731;-72
2022/09/14 10:53:33;;;;;;;36.00;25.55;;;;;;;33.69;61.00;97772.88;5008774;28;20563;-72
2022/09/14 10:56:39;;;;;;;35.17;24.52;;;;;;;33.68;60.23;97765.69;5008225;28;20176;-72
2022/09/14 10:59:35;;;;;;;37.60;24.63;;;;;;;33.61;60.92;97771.22;4991461;28;20041;-69
2022/09/14 11:02:43;;;;;;;41.45;25.92;;;;;;;33.54;62.47;97765.63;5009074;28;20661;-68
2022/09/14 11:05:40;;;;;;;;;;;;;;;33.58;63.50;97758.06;4994523;28;20060;-73
2022/09/14 11:08:35;;;;;;;54.47;26.88;;;;;;;33.46;62.72;97775.09;5008848;28;19938;-74
2022/09/14 11:11:45;;;;;;;40.20;24.80;;;;;;;33.58;61.50;97768.41;5008802;28;20477;-72
2022/09/14 11:14:39;;;;;;;35.45;24.73;;;;;;;33.63;62.34;97763.31;4991268;28;20042;-73
2022/09/14 11:17:41;;;;;;;34.60;25.10;;;;;;;33.73;61.72;97767.31;5007620;28;20096;-74
2022/09/14 11:21:07;;;;;;;32.03;24.33;;;;;;;33.77;60.08;97764.56;5007128;28;20054;-74
2022/09/14 11:23:57;;;;;;;33.72;24.10;;;;;;;33.86;60.03;97759.38;5005108;28;20488;-73
2022/09/14 11:27:01;;;;;;;36.05;25.88;;;;;;;33.90;60.45;97761.00;4993906;28;20057;-74
2022/09/14 11:30:28;;;;;;;38.67;26.40;;;;;;;33.83;60.50;97760.97;5006489;28;20041;-72
2022/09/14 11:33:46;;;;;;;48.47;28.60;;;;;;;33.79;62.06;97764.97;5005844;28;20050;-73
2022/09/14 11:36:53;;;;;;;37.03;27.80;;;;;;;33.78;63.01;97755.00;4966713;28;20042;-72
2022/09/14 11:39:42;;;;;;;42.20;28.65;;;;;;;33.74;63.61;97755.81;5005477;28;20737;-73
2022/09/14 11:43:07;;;;;;;42.40;28.15;;;;;;;33.87;59.14;97761.78;4988124;28;20912;-73
2022/09/14 11:46:10;;;;;;;36.60;26.77;;;;;;;33.89;58.82;97761.41;4998516;28;20088;-73
2022/09/14 11:49:21;;;;;;;39.30;25.80;;;;;;;33.79;58.73;97753.81;5007920;28;20068;-72
2022/09/14 11:52:19;;;;;;;49.97;27.58;;;;;;;33.96;58.30;97747.50;4983654;28;20120;-72
2022/09/14 11:55:03;;;;;;;37.20;25.95;;;;;;;34.17;57.52;97748.78;5008184;28;20052;-72
2022/09/14 11:57:55;;;;;;;43.80;25.90;;;;;;;34.19;57.97;97755.53;5007627;28;20440;-73
2022/09/14 12:00:50;;;;;;;35.00;26.10;;;;;;;34.29;59.84;97765.09;4989966;28;20669;-73
2022/09/14 12:04:16;;;;;;;34.13;24.73;;;;;;;34.36;58.65;97755.94;5002835;28;20046;-71
2022/09/14 12:07:06;;;;;;;40.78;26.13;;;;;;;34.27;58.77;97761.91;4908786;29;20063;-72
2022/09/14 12:09:50;;;;;;;40.25;26.75;;;;;;;34.33;59.63;97768.69;4979057;28;20065;-71
2022/09/14 12:12:44;;;;;;;41.78;27.40;;;;;;;34.37;59.30;97761.13;4992968;28;20081;-74
2022/09/14 12:15:26;;;;;;;52.33;27.70;;;;;;;34.40;58.30;97760.34;5007174;28;20054;-72
2022/09/14 12:18:18;;;;;;;37.78;25.77;;;;;;;34.11;57.85;97759.47;5007575;28;20077;-71
2022/09/14 12:21:17;;;;;;;40.38;26.48;;;;;;;34.20;57.57;97767.47;5000529;28;20049;-73
2022/09/14 12:24:21;;;;;;;38.35;26.60;;;;;;;34.27;58.41;97770.28;5007128;28;20497;-73
2022/09/14 12:27:20;;;;;;;40.13;26.05;;;;;;;34.42;58.77;97774.66;5007299;28;20073;-73
2022/09/14 12:30:43;;;;;;;37.85;26.98;;;;;;;34.07;59.05;97781.75;5007490;28;20045;-71
2022/09/14 12:36:43;;;;;;;42.75;28.77;;;;;;;34.21;58.93;97775.44;5011090;28;20077;-73
2022/09/14 12:39:35;;;;;;;38.20;25.70;;;;;;;34.32;57.50;97775.47;5012363;28;20058;-73
2022/09/14 12:42:33;;;;;;;44.90;29.05;;;;;;;34.12;60.31;97777.75;5014156;28;20112;-72
2022/09/14 12:45:48;;;;;;;36.08;26.20;;;;;;;34.20;57.93;97789.75;5007383;28;20133;-72
2022/09/14 12:48:54;;;;;;;37.75;25.35;;;;;;;34.04;58.91;97782.53;5005902;28;20049;-72
2022/09/14 12:51:50;;;;;;;40.55;26.67;;;;;;;33.99;59.15;97780.09;5003563;28;20045;-72
2022/09/14 12:54:50;;;;;;;36.80;25.25;;;;;;;33.92;60.11;97780.09;4989626;28;20478;-72
2022/09/14 12:58:01;;;;;;;46.22;25.27;;;;;;;33.70;57.94;97790.34;4986289;28;20050;-73
2022/09/14 13:01:13;;;;;;;34.92;24.80;;;;;;;33.77;59.87;97786.81;4986912;28;20058;-72
2022/09/14 13:04:17;;;;;;;39.60;24.88;;;;;;;33.41;57.70;97794.94;4986232;28;20049;-73
2022/09/14 13:06:56;;;;;;;40.63;25.27;;;;;;;33.64;56.96;97792.72;4969700;28;20050;-71
2022/09/14 13:09:50;;;;;;;45.53;24.75;;;;;;;33.59;58.50;97793.03;4956596;28;20108;-73
2022/09/14 13:12:52;;;;;;;38.30;25.13;;;;;;;33.41;60.64;97792.16;4993431;28;20140;-72
2022/09/14 13:16:02;;;;;;;42.15;23.98;;;;;;;33.27;61.16;97796.47;4988686;28;20046;-70
2022/09/14 13:18:52;;;;;;;36.53;26.00;;;;;;;33.20;61.14;97796.41;4971977;28;20044;-72
2022/09/14 13:21:49;;;;;;;42.40;25.27;;;;;;;33.11;61.26;97791.19;4970419;28;20100;-71
2022/09/14 13:24:49;;;;;;;55.33;27.08;;;;;;;33.05;61.77;97795.47;4988410;28;20103;-70